F/V Anthineas — FQVN — position and weather

sailwx.info

Track history (hours):
 
Tides and Currents Weather Stations Pressure Air Temp Water Temp Dewpoint Dewpoint Depression Visibility Wind Speed Wind Dir Waves Ship Positions

F/V Anthineas

Last reported at 2017-Nov-23 10:04 UTC. Time now 2017-Nov-23 10:52 UTC.
Position N 46°30' W 001°47'.

Length 23 m.

Type: Fishing. MMSI: 228367000.

Date/timePositionNaut miles runAvg speedWind from/ knotsBaromVisibWave heightAir tempDewpointWater temp
2017-Nov-23 10:04N 46°30' W 001°47'0 1.6
2017-Nov-23 10:00N 46°30' W 001°47'0 0.2
2017-Nov-23 09:30N 46°30' W 001°47'0 0.0
2017-Nov-23 09:00N 46°30' W 001°47'0 0.0
2017-Nov-23 08:30N 46°30' W 001°47'0 0.0
2017-Nov-23 08:00N 46°30' W 001°47'0 0.0
2017-Nov-23 04:30N 46°30' W 001°47'0 0.0
2017-Nov-22 20:24N 46°30' W 001°47'0 0.2
2017-Nov-22 20:00N 46°30' W 001°47'0 0.0
2017-Nov-22 19:30N 46°30' W 001°47'  
2017-Nov-19 18:02N 46°30' W 001°47'0 0.1
2017-Nov-19 18:00N 46°30' W 001°47'0 0.3
2017-Nov-19 17:30N 46°30' W 001°47'3 6.6
2017-Nov-19 17:00N 46°28' W 001°51'510.5
2017-Nov-19 16:30N 46°28' W 001°59'510.2
2017-Nov-19 16:00N 46°28' W 002°06'2 3.8
2017-Nov-19 15:30N 46°28' W 002°09'1 2.7
2017-Nov-19 14:58N 46°28' W 002°11'1 1.5
2017-Nov-19 14:30N 46°28' W 002°11'0 0.7
2017-Nov-19 14:00N 46°28' W 002°12'0 0.7
2017-Nov-19 13:30N 46°27' W 002°12'7 1.5
2017-Nov-19 09:08N 46°26' W 002°21'0 1.0
2017-Nov-19 08:58N 46°26' W 002°21'0 0.3
2017-Nov-19 07:53N 46°26' W 002°21'0 0.5
2017-Nov-19 07:30N 46°26' W 002°21'0 0.5
2017-Nov-19 06:57N 46°26' W 002°22'5 9.6
2017-Nov-19 06:28N 46°26' W 002°15'4 9.7
2017-Nov-19 06:00N 46°27' W 002°08'5 9.7
2017-Nov-19 05:30N 46°27' W 002°01'5 9.5
2017-Nov-19 05:00N 46°28' W 001°55'5 9.4
2017-Nov-19 04:30N 46°29' W 001°48'1 0.1
2017-Nov-18 18:30N 46°30' W 001°47'3 5.3
2017-Nov-18 18:01N 46°28' W 001°51'5 9.9
2017-Nov-18 17:30N 46°28' W 001°58'510.0
2017-Nov-18 17:01N 46°28' W 002°05'2 4.1
2017-Nov-18 16:30N 46°29' W 002°08'1 1.8
2017-Nov-18 16:01N 46°29' W 002°08'1 1.4
2017-Nov-18 15:30N 46°30' W 002°07'0 0.9
2017-Nov-18 15:00N 46°30' W 002°08'0 0.4
2017-Nov-18 14:30N 46°30' W 002°08'0 1.0
2017-Nov-18 14:01N 46°30' W 002°09'1 2.4
2017-Nov-18 13:29N 46°31' W 002°10'3 5.2
2017-Nov-18 13:00N 46°33' W 002°11'0 0.6
2017-Nov-18 12:31N 46°33' W 002°11'1 1.9
2017-Nov-18 11:59N 46°33' W 002°12'1 1.9
2017-Nov-18 11:28N 46°32' W 002°11'1 2.4
2017-Nov-18 10:57N 46°32' W 002°12'1 2.8
2017-Nov-18 10:30N 46°32' W 002°10'1 1.8
2017-Nov-18 10:00N 46°31' W 002°09'1 1.8
2017-Nov-18 09:30N 46°32' W 002°11'0 0.7
2017-Nov-18 09:00N 46°31' W 002°10'1 1.7
2017-Nov-18 08:30N 46°31' W 002°10'1 2.4
2017-Nov-18 08:00N 46°32' W 002°09'1 2.7
2017-Nov-18 07:30N 46°32' W 002°11'0 0.2
2017-Nov-18 07:00N 46°32' W 002°11'3 5.6
2017-Nov-18 06:30N 46°31' W 002°07'5 9.6
2017-Nov-18 06:00N 46°30' W 002°00'5 9.5
2017-Nov-18 05:31N 46°29' W 001°54'4 8.9
2017-Nov-18 05:00N 46°29' W 001°47'1 0.1
2017-Nov-17 18:40N 46°30' W 001°47'0 0.0
2017-Nov-17 18:31N 46°30' W 001°47'0 0.0
2017-Nov-17 18:00N 46°30' W 001°47'3 6.1
2017-Nov-17 17:31N 46°28' W 001°51'510.4
2017-Nov-17 17:01N 46°28' W 001°59'2 4.4
2017-Nov-17 16:30N 46°28' W 002°02'1 2.6
2017-Nov-17 15:59N 46°29' W 002°01'1 2.0
2017-Nov-17 15:30N 46°28' W 002°02'1 2.1
2017-Nov-17 15:00N 46°29' W 002°03'1 1.2
2017-Nov-17 14:31N 46°29' W 002°02'1 1.0
2017-Nov-17 14:00N 46°29' W 002°03'0 1.0
2017-Nov-17 13:31N 46°29' W 002°03'0 0.5
2017-Nov-17 13:00N 46°29' W 002°04'0 0.4
2017-Nov-17 12:31N 46°29' W 002°04'1 2.2
2017-Nov-17 12:00N 46°30' W 002°05'0 1.0
2017-Nov-17 11:30N 46°29' W 002°05'1 2.7
2017-Nov-17 11:00N 46°28' W 002°06'1 2.5
2017-Nov-17 10:29N 46°29' W 002°05'1 1.2
2017-Nov-17 10:00N 46°29' W 002°04'2 3.1
2017-Nov-17 09:31N 46°29' W 002°07'0 0.9
2017-Nov-17 09:00N 46°30' W 002°07'1 2.1
2017-Nov-17 08:30N 46°29' W 002°06'3 5.7
2017-Nov-17 08:00N 46°30' W 002°09'0 0.8
2017-Nov-17 07:31N 46°30' W 002°09'0 0.3
2017-Nov-17 07:00N 46°30' W 002°09'1 1.2
2017-Nov-17 06:30N 46°31' W 002°08'5 9.1
2017-Nov-17 06:00N 46°30' W 002°01'5 9.6
2017-Nov-17 05:30N 46°29' W 001°55'5 9.2
2017-Nov-17 05:00N 46°29' W 001°48'1 0.1
2017-Nov-16 17:53N 46°30' W 001°47'0 0.3
2017-Nov-16 17:30N 46°30' W 001°47'3 6.6
2017-Nov-16 17:00N 46°29' W 001°52'510.2
2017-Nov-16 16:30N 46°29' W 001°59'510.3
2017-Nov-16 16:00N 46°29' W 002°06'1 1.1
2017-Nov-16 15:30N 46°30' W 002°07'1 1.9
2017-Nov-16 15:00N 46°30' W 002°06'510.0
2017-Nov-16 14:30N 46°30' W 002°13'3 5.9
2017-Nov-16 14:00N 46°30' W 002°17'1 2.1
2017-Nov-16 13:30N 46°31' W 002°19'2 3.1
2017-Nov-16 13:00N 46°31' W 002°21'1 2.9
2017-Nov-16 12:30N 46°31' W 002°23'1 2.6
2017-Nov-16 12:00N 46°31' W 002°25'2 4.9
2017-Nov-16 11:30N 46°31' W 002°21'0 0.4
2017-Nov-16 11:00N 46°31' W 002°21'1 1.1
2017-Nov-16 10:30N 46°31' W 002°22'1 2.7
2017-Nov-16 10:00N 46°31' W 002°24'1 2.6
2017-Nov-16 09:30N 46°30' W 002°25'1 1.8
2017-Nov-16 08:56N 46°31' W 002°25'0 0.6
2017-Nov-16 08:30N 46°32' W 002°25'0 0.6
2017-Nov-16 08:00N 46°31' W 002°26'1 1.3
2017-Nov-16 07:30N 46°32' W 002°26'1 2.2
2017-Nov-16 07:00N 46°33' W 002°27'1 1.8
2017-Nov-16 06:30N 46°32' W 002°26'1 1.9
2017-Nov-16 05:50N 46°31' W 002°28'0 0.4
2017-Nov-16 05:24N 46°32' W 002°28'1 0.8
2017-Nov-16 04:41N 46°32' W 002°27'0 0.7
2017-Nov-16 04:21N 46°32' W 002°27'1 1.7
2017-Nov-16 04:00N 46°32' W 002°26'3 5.3
2017-Nov-16 03:30N 46°32' W 002°22'3 5.1
2017-Nov-16 03:00N 46°31' W 002°18'3 5.0
2017-Nov-16 02:30N 46°31' W 002°15'3 5.0
2017-Nov-16 02:00N 46°31' W 002°11'2 4.9
2017-Nov-16 01:30N 46°30' W 002°08'2 4.9
2017-Nov-16 01:00N 46°30' W 002°04'2 5.0
2017-Nov-16 00:30N 46°30' W 002°00'3 5.0
2017-Nov-16 00:00N 46°29' W 001°57'3 5.4
2017-Nov-15 23:30N 46°29' W 001°53'3 5.5
2017-Nov-15 23:00N 46°29' W 001°49'2 3.6
2017-Nov-15 22:30N 46°30' W 001°47'0 0.7
2017-Nov-15 22:00N 46°30' W 001°48'2 4.3
2017-Nov-15 21:30N 46°28' W 001°50'3 6.8
2017-Nov-15 21:00N 46°28' W 001°55'3 6.7
2017-Nov-15 20:30N 46°29' W 001°60'3 6.6
2017-Nov-15 20:00N 46°29' W 002°04'3 6.2
2017-Nov-15 19:30N 46°29' W 002°09'3 6.1
2017-Nov-15 18:59N 46°29' W 002°14'2 5.1
2017-Nov-15 18:30N 46°29' W 002°17'2 4.0
2017-Nov-15 18:00N 46°29' W 002°20'2 2.1
2017-Nov-15 16:58N 46°30' W 002°23'0 0.4
2017-Nov-15 15:58N 46°31' W 002°22'0 0.4
2017-Nov-15 15:28N 46°31' W 002°22'1 0.3
2017-Nov-15 12:11N 46°31' W 002°23'1 4.6
2017-Nov-15 11:56N 46°31' W 002°25'1 2.6
2017-Nov-15 11:28N 46°30' W 002°24'0 0.5
2017-Nov-15 11:00N 46°30' W 002°24'0 0.5
2017-Nov-15 10:30N 46°30' W 002°24'1 1.0
2017-Nov-15 09:52N 46°30' W 002°24'0 0.9
2017-Nov-15 09:24N 46°30' W 002°25'0 1.1
2017-Nov-15 09:00N 46°29' W 002°25'1 1.8
2017-Nov-15 08:29N 46°30' W 002°25'1 2.2
2017-Nov-15 07:57N 46°30' W 002°26'0 0.6
2017-Nov-15 07:30N 46°29' W 002°26'1 1.7
2017-Nov-15 07:00N 46°29' W 002°26'1 2.3
2017-Nov-15 06:29N 46°30' W 002°27'0 0.6
2017-Nov-15 06:00N 46°29' W 002°26'0 0.7
2017-Nov-15 05:30N 46°29' W 002°26'0 0.7
2017-Nov-15 05:00N 46°29' W 002°25'0 0.7
2017-Nov-15 04:27N 46°29' W 002°25'1 2.8
2017-Nov-15 04:00N 46°29' W 002°23'2 4.2
2017-Nov-15 03:30N 46°29' W 002°20'2 4.2
2017-Nov-15 02:58N 46°29' W 002°17'2 4.0
2017-Nov-15 02:30N 46°29' W 002°14'2 3.9
2017-Nov-15 02:00N 46°29' W 002°11'2 3.8
2017-Nov-15 01:30N 46°29' W 002°09'2 3.7
2017-Nov-15 01:00N 46°29' W 002°06'2 3.8
2017-Nov-15 00:30N 46°28' W 002°03'2 3.8
2017-Nov-15 00:00N 46°28' W 002°00'2 3.8
2017-Nov-14 23:30N 46°28' W 001°57'2 3.8
2017-Nov-14 23:00N 46°28' W 001°55'2 4.1
2017-Nov-14 22:30N 46°28' W 001°52'3 5.1
2017-Nov-14 22:00N 46°28' W 001°48'2 3.3
2017-Nov-14 21:30N 46°30' W 001°47'1 1.5
2017-Nov-14 21:00N 46°29' W 001°47'1 2.6
2017-Nov-14 20:30N 46°28' W 001°49'1 1.7
2017-Nov-14 20:00N 46°28' W 001°50'1 2.9
2017-Nov-14 19:30N 46°28' W 001°52'2 3.1
2017-Nov-14 19:00N 46°28' W 001°54'2 3.4
2017-Nov-14 18:30N 46°28' W 001°57'1 2.7
2017-Nov-14 18:00N 46°28' W 001°58'2 4.5
2017-Nov-14 17:30N 46°27' W 002°02'4 4.4
2017-Nov-14 16:34N 46°27' W 002°08'0 4.5
2017-Nov-14 16:30N 46°27' W 002°08'1 1.3
2017-Nov-14 16:00N 46°27' W 002°09'1 2.7
2017-Nov-14 15:30N 46°28' W 002°08'3 4.9
2017-Nov-14 14:55N 46°26' W 002°11'0 0.6
2017-Nov-14 14:24N 46°27' W 002°11'0 1.2
2017-Nov-14 14:00N 46°27' W 002°11'1 1.2
2017-Nov-14 13:20N 46°27' W 002°12'1 3.6
2017-Nov-14 13:00N 46°27' W 002°13'2 1.7
2017-Nov-14 11:45N 46°26' W 002°12'2 6.5
2017-Nov-14 11:28N 46°26' W 002°14'0 0.3
2017-Nov-14 10:47N 46°26' W 002°14'1 4.1
2017-Nov-14 10:30N 46°26' W 002°13'2 3.8
2017-Nov-14 09:59N 46°26' W 002°15'1 1.5
2017-Nov-14 09:28N 46°27' W 002°14'1 1.6
2017-Nov-14 09:00N 46°27' W 002°15'0 0.6
2017-Nov-14 08:30N 46°27' W 002°15'0 0.3
2017-Nov-14 08:00N 46°27' W 002°15'1 1.0
2017-Nov-14 07:30N 46°27' W 002°16'1 1.6
2017-Nov-14 06:55N 46°28' W 002°16'1 3.3
2017-Nov-14 06:30N 46°27' W 002°17'0 0.9
2017-Nov-14 06:00N 46°27' W 002°17'1 0.6
2017-Nov-14 04:51N 46°28' W 002°16'0 0.1
2017-Nov-14 04:19N 46°28' W 002°16'0 1.1
2017-Nov-14 04:00N 46°28' W 002°16'0 0.9
2017-Nov-14 03:29N 46°27' W 002°16'0 0.7
2017-Nov-14 02:59N 46°27' W 002°16'1 2.8
2017-Nov-14 02:29N 46°27' W 002°14'2 3.2
2017-Nov-14 02:00N 46°27' W 002°12'2 3.6
2017-Nov-14 01:30N 46°27' W 002°09'2 4.2
2017-Nov-14 01:00N 46°28' W 002°06'2 4.4
2017-Nov-14 00:30N 46°28' W 002°03'2 4.5
2017-Nov-14 00:00N 46°28' W 001°60'2 4.6
2017-Nov-13 23:30N 46°28' W 001°57'2 4.6
2017-Nov-13 23:00N 46°28' W 001°53'2 4.6
2017-Nov-13 22:30N 46°28' W 001°50'2 3.9
2017-Nov-13 22:00N 46°29' W 001°47'  
Track history (hours):
 
Tides and Currents Weather Stations Pressure Air Temp Water Temp Dewpoint Dewpoint Depression Visibility Wind Speed Wind Dir Waves Ship Positions

F/V Anthineas

Last reported at 2017-Nov-23 10:04 UTC. Time now 2017-Nov-23 10:52 UTC.
Position N 46°30' W 001°47'.

Length 23 m.

Type: Fishing. MMSI: 228367000.

Date/timePositionNaut miles runAvg speedWind from/ knotsBaromVisibWave heightAir tempDewpointWater temp
2017-Nov-23 10:04N 46°30' W 001°47'0 1.6
2017-Nov-23 10:00N 46°30' W 001°47'0 0.2
2017-Nov-23 09:30N 46°30' W 001°47'0 0.0
2017-Nov-23 09:00N 46°30' W 001°47'0 0.0
2017-Nov-23 08:30N 46°30' W 001°47'0 0.0
2017-Nov-23 08:00N 46°30' W 001°47'0 0.0
2017-Nov-23 04:30N 46°30' W 001°47'0 0.0
2017-Nov-22 20:24N 46°30' W 001°47'0 0.2
2017-Nov-22 20:00N 46°30' W 001°47'0 0.0
2017-Nov-22 19:30N 46°30' W 001°47'  
2017-Nov-19 18:02N 46°30' W 001°47'0 0.1
2017-Nov-19 18:00N 46°30' W 001°47'0 0.3
2017-Nov-19 17:30N 46°30' W 001°47'3 6.6
2017-Nov-19 17:00N 46°28' W 001°51'510.5
2017-Nov-19 16:30N 46°28' W 001°59'510.2
2017-Nov-19 16:00N 46°28' W 002°06'2 3.8
2017-Nov-19 15:30N 46°28' W 002°09'1 2.7
2017-Nov-19 14:58N 46°28' W 002°11'1 1.5
2017-Nov-19 14:30N 46°28' W 002°11'0 0.7
2017-Nov-19 14:00N 46°28' W 002°12'0 0.7
2017-Nov-19 13:30N 46°27' W 002°12'7 1.5
2017-Nov-19 09:08N 46°26' W 002°21'0 1.0
2017-Nov-19 08:58N 46°26' W 002°21'0 0.3
2017-Nov-19 07:53N 46°26' W 002°21'0 0.5
2017-Nov-19 07:30N 46°26' W 002°21'0 0.5
2017-Nov-19 06:57N 46°26' W 002°22'5 9.6
2017-Nov-19 06:28N 46°26' W 002°15'4 9.7
2017-Nov-19 06:00N 46°27' W 002°08'5 9.7
2017-Nov-19 05:30N 46°27' W 002°01'5 9.5
2017-Nov-19 05:00N 46°28' W 001°55'5 9.4
2017-Nov-19 04:30N 46°29' W 001°48'1 0.1
2017-Nov-18 18:30N 46°30' W 001°47'3 5.3
2017-Nov-18 18:01N 46°28' W 001°51'5 9.9
2017-Nov-18 17:30N 46°28' W 001°58'510.0
2017-Nov-18 17:01N 46°28' W 002°05'2 4.1
2017-Nov-18 16:30N 46°29' W 002°08'1 1.8
2017-Nov-18 16:01N 46°29' W 002°08'1 1.4
2017-Nov-18 15:30N 46°30' W 002°07'0 0.9
2017-Nov-18 15:00N 46°30' W 002°08'0 0.4
2017-Nov-18 14:30N 46°30' W 002°08'0 1.0
2017-Nov-18 14:01N 46°30' W 002°09'1 2.4
2017-Nov-18 13:29N 46°31' W 002°10'3 5.2
2017-Nov-18 13:00N 46°33' W 002°11'0 0.6
2017-Nov-18 12:31N 46°33' W 002°11'1 1.9
2017-Nov-18 11:59N 46°33' W 002°12'1 1.9
2017-Nov-18 11:28N 46°32' W 002°11'1 2.4
2017-Nov-18 10:57N 46°32' W 002°12'1 2.8
2017-Nov-18 10:30N 46°32' W 002°10'1 1.8
2017-Nov-18 10:00N 46°31' W 002°09'1 1.8
2017-Nov-18 09:30N 46°32' W 002°11'0 0.7
2017-Nov-18 09:00N 46°31' W 002°10'1 1.7
2017-Nov-18 08:30N 46°31' W 002°10'1 2.4
2017-Nov-18 08:00N 46°32' W 002°09'1 2.7
2017-Nov-18 07:30N 46°32' W 002°11'0 0.2
2017-Nov-18 07:00N 46°32' W 002°11'3 5.6
2017-Nov-18 06:30N 46°31' W 002°07'5 9.6
2017-Nov-18 06:00N 46°30' W 002°00'5 9.5
2017-Nov-18 05:31N 46°29' W 001°54'4 8.9
2017-Nov-18 05:00N 46°29' W 001°47'1 0.1
2017-Nov-17 18:40N 46°30' W 001°47'0 0.0
2017-Nov-17 18:31N 46°30' W 001°47'0 0.0
2017-Nov-17 18:00N 46°30' W 001°47'3 6.1
2017-Nov-17 17:31N 46°28' W 001°51'510.4
2017-Nov-17 17:01N 46°28' W 001°59'2 4.4
2017-Nov-17 16:30N 46°28' W 002°02'1 2.6
2017-Nov-17 15:59N 46°29' W 002°01'1 2.0
2017-Nov-17 15:30N 46°28' W 002°02'1 2.1
2017-Nov-17 15:00N 46°29' W 002°03'1 1.2
2017-Nov-17 14:31N 46°29' W 002°02'1 1.0
2017-Nov-17 14:00N 46°29' W 002°03'0 1.0
2017-Nov-17 13:31N 46°29' W 002°03'0 0.5
2017-Nov-17 13:00N 46°29' W 002°04'0 0.4
2017-Nov-17 12:31N 46°29' W 002°04'1 2.2
2017-Nov-17 12:00N 46°30' W 002°05'0 1.0
2017-Nov-17 11:30N 46°29' W 002°05'1 2.7
2017-Nov-17 11:00N 46°28' W 002°06'1 2.5
2017-Nov-17 10:29N 46°29' W 002°05'1 1.2
2017-Nov-17 10:00N 46°29' W 002°04'2 3.1
2017-Nov-17 09:31N 46°29' W 002°07'0 0.9
2017-Nov-17 09:00N 46°30' W 002°07'1 2.1
2017-Nov-17 08:30N 46°29' W 002°06'3 5.7
2017-Nov-17 08:00N 46°30' W 002°09'0 0.8
2017-Nov-17 07:31N 46°30' W 002°09'0 0.3
2017-Nov-17 07:00N 46°30' W 002°09'1 1.2
2017-Nov-17 06:30N 46°31' W 002°08'5 9.1
2017-Nov-17 06:00N 46°30' W 002°01'5 9.6
2017-Nov-17 05:30N 46°29' W 001°55'5 9.2
2017-Nov-17 05:00N 46°29' W 001°48'1 0.1
2017-Nov-16 17:53N 46°30' W 001°47'0 0.3
2017-Nov-16 17:30N 46°30' W 001°47'3 6.6
2017-Nov-16 17:00N 46°29' W 001°52'510.2
2017-Nov-16 16:30N 46°29' W 001°59'510.3
2017-Nov-16 16:00N 46°29' W 002°06'1 1.1
2017-Nov-16 15:30N 46°30' W 002°07'1 1.9
2017-Nov-16 15:00N 46°30' W 002°06'510.0
2017-Nov-16 14:30N 46°30' W 002°13'3 5.9
2017-Nov-16 14:00N 46°30' W 002°17'1 2.1
2017-Nov-16 13:30N 46°31' W 002°19'2 3.1
2017-Nov-16 13:00N 46°31' W 002°21'1 2.9
2017-Nov-16 12:30N 46°31' W 002°23'1 2.6
2017-Nov-16 12:00N 46°31' W 002°25'2 4.9
2017-Nov-16 11:30N 46°31' W 002°21'0 0.4
2017-Nov-16 11:00N 46°31' W 002°21'1 1.1
2017-Nov-16 10:30N 46°31' W 002°22'1 2.7
2017-Nov-16 10:00N 46°31' W 002°24'1 2.6
2017-Nov-16 09:30N 46°30' W 002°25'1 1.8
2017-Nov-16 08:56N 46°31' W 002°25'0 0.6
2017-Nov-16 08:30N 46°32' W 002°25'0 0.6
2017-Nov-16 08:00N 46°31' W 002°26'1 1.3
2017-Nov-16 07:30N 46°32' W 002°26'1 2.2
2017-Nov-16 07:00N 46°33' W 002°27'1 1.8
2017-Nov-16 06:30N 46°32' W 002°26'1 1.9
2017-Nov-16 05:50N 46°31' W 002°28'0 0.4
2017-Nov-16 05:24N 46°32' W 002°28'1 0.8
2017-Nov-16 04:41N 46°32' W 002°27'0 0.7
2017-Nov-16 04:21N 46°32' W 002°27'1 1.7
2017-Nov-16 04:00N 46°32' W 002°26'3 5.3
2017-Nov-16 03:30N 46°32' W 002°22'3 5.1
2017-Nov-16 03:00N 46°31' W 002°18'3 5.0
2017-Nov-16 02:30N 46°31' W 002°15'3 5.0
2017-Nov-16 02:00N 46°31' W 002°11'2 4.9
2017-Nov-16 01:30N 46°30' W 002°08'2 4.9
2017-Nov-16 01:00N 46°30' W 002°04'2 5.0
2017-Nov-16 00:30N 46°30' W 002°00'3 5.0
2017-Nov-16 00:00N 46°29' W 001°57'3 5.4
2017-Nov-15 23:30N 46°29' W 001°53'3 5.5
2017-Nov-15 23:00N 46°29' W 001°49'2 3.6
2017-Nov-15 22:30N 46°30' W 001°47'0 0.7
2017-Nov-15 22:00N 46°30' W 001°48'2 4.3
2017-Nov-15 21:30N 46°28' W 001°50'3 6.8
2017-Nov-15 21:00N 46°28' W 001°55'3 6.7
2017-Nov-15 20:30N 46°29' W 001°60'3 6.6
2017-Nov-15 20:00N 46°29' W 002°04'3 6.2
2017-Nov-15 19:30N 46°29' W 002°09'3 6.1
2017-Nov-15 18:59N 46°29' W 002°14'2 5.1
2017-Nov-15 18:30N 46°29' W 002°17'2 4.0
2017-Nov-15 18:00N 46°29' W 002°20'2 2.1
2017-Nov-15 16:58N 46°30' W 002°23'0 0.4
2017-Nov-15 15:58N 46°31' W 002°22'0 0.4
2017-Nov-15 15:28N 46°31' W 002°22'1 0.3
2017-Nov-15 12:11N 46°31' W 002°23'1 4.6
2017-Nov-15 11:56N 46°31' W 002°25'1 2.6
2017-Nov-15 11:28N 46°30' W 002°24'0 0.5
2017-Nov-15 11:00N 46°30' W 002°24'0 0.5
2017-Nov-15 10:30N 46°30' W 002°24'1 1.0
2017-Nov-15 09:52N 46°30' W 002°24'0 0.9
2017-Nov-15 09:24N 46°30' W 002°25'0 1.1
2017-Nov-15 09:00N 46°29' W 002°25'1 1.8
2017-Nov-15 08:29N 46°30' W 002°25'1 2.2
2017-Nov-15 07:57N 46°30' W 002°26'0 0.6
2017-Nov-15 07:30N 46°29' W 002°26'1 1.7
2017-Nov-15 07:00N 46°29' W 002°26'1 2.3
2017-Nov-15 06:29N 46°30' W 002°27'0 0.6
2017-Nov-15 06:00N 46°29' W 002°26'0 0.7
2017-Nov-15 05:30N 46°29' W 002°26'0 0.7
2017-Nov-15 05:00N 46°29' W 002°25'0 0.7
2017-Nov-15 04:27N 46°29' W 002°25'1 2.8
2017-Nov-15 04:00N 46°29' W 002°23'2 4.2
2017-Nov-15 03:30N 46°29' W 002°20'2 4.2
2017-Nov-15 02:58N 46°29' W 002°17'2 4.0
2017-Nov-15 02:30N 46°29' W 002°14'2 3.9
2017-Nov-15 02:00N 46°29' W 002°11'2 3.8
2017-Nov-15 01:30N 46°29' W 002°09'2 3.7
2017-Nov-15 01:00N 46°29' W 002°06'2 3.8
2017-Nov-15 00:30N 46°28' W 002°03'2 3.8
2017-Nov-15 00:00N 46°28' W 002°00'2 3.8
2017-Nov-14 23:30N 46°28' W 001°57'2 3.8
2017-Nov-14 23:00N 46°28' W 001°55'2 4.1
2017-Nov-14 22:30N 46°28' W 001°52'3 5.1
2017-Nov-14 22:00N 46°28' W 001°48'2 3.3
2017-Nov-14 21:30N 46°30' W 001°47'1 1.5
2017-Nov-14 21:00N 46°29' W 001°47'1 2.6
2017-Nov-14 20:30N 46°28' W 001°49'1 1.7
2017-Nov-14 20:00N 46°28' W 001°50'1 2.9
2017-Nov-14 19:30N 46°28' W 001°52'2 3.1
2017-Nov-14 19:00N 46°28' W 001°54'2 3.4
2017-Nov-14 18:30N 46°28' W 001°57'1 2.7
2017-Nov-14 18:00N 46°28' W 001°58'2 4.5
2017-Nov-14 17:30N 46°27' W 002°02'4 4.4
2017-Nov-14 16:34N 46°27' W 002°08'0 4.5
2017-Nov-14 16:30N 46°27' W 002°08'1 1.3
2017-Nov-14 16:00N 46°27' W 002°09'1 2.7
2017-Nov-14 15:30N 46°28' W 002°08'3 4.9
2017-Nov-14 14:55N 46°26' W 002°11'0 0.6
2017-Nov-14 14:24N 46°27' W 002°11'0 1.2
2017-Nov-14 14:00N 46°27' W 002°11'1 1.2
2017-Nov-14 13:20N 46°27' W 002°12'1 3.6
2017-Nov-14 13:00N 46°27' W 002°13'2 1.7
2017-Nov-14 11:45N 46°26' W 002°12'2 6.5
2017-Nov-14 11:28N 46°26' W 002°14'0 0.3
2017-Nov-14 10:47N 46°26' W 002°14'1 4.1
2017-Nov-14 10:30N 46°26' W 002°13'2 3.8
2017-Nov-14 09:59N 46°26' W 002°15'1 1.5
2017-Nov-14 09:28N 46°27' W 002°14'1 1.6
2017-Nov-14 09:00N 46°27' W 002°15'0 0.6
2017-Nov-14 08:30N 46°27' W 002°15'0 0.3
2017-Nov-14 08:00N 46°27' W 002°15'1 1.0
2017-Nov-14 07:30N 46°27' W 002°16'1 1.6
2017-Nov-14 06:55N 46°28' W 002°16'1 3.3
2017-Nov-14 06:30N 46°27' W 002°17'0 0.9
2017-Nov-14 06:00N 46°27' W 002°17'1 0.6
2017-Nov-14 04:51N 46°28' W 002°16'0 0.1
2017-Nov-14 04:19N 46°28' W 002°16'0 1.1
2017-Nov-14 04:00N 46°28' W 002°16'0 0.9
2017-Nov-14 03:29N 46°27' W 002°16'0 0.7
2017-Nov-14 02:59N 46°27' W 002°16'1 2.8
2017-Nov-14 02:29N 46°27' W 002°14'2 3.2
2017-Nov-14 02:00N 46°27' W 002°12'2 3.6
2017-Nov-14 01:30N 46°27' W 002°09'2 4.2
2017-Nov-14 01:00N 46°28' W 002°06'2 4.4
2017-Nov-14 00:30N 46°28' W 002°03'2 4.5
2017-Nov-14 00:00N 46°28' W 001°60'2 4.6
2017-Nov-13 23:30N 46°28' W 001°57'2 4.6
2017-Nov-13 23:00N 46°28' W 001°53'2 4.6
2017-Nov-13 22:30N 46°28' W 001°50'2 3.9
2017-Nov-13 22:00N 46°29' W 001°47'  

Dump ship's entire track history